createdAt,value
2018-02-20T00:00:34.274Z,82.20
2018-02-20T00:03:00.734Z,82.20
2018-02-20T00:05:27.900Z,82.10
2018-02-20T00:07:55.099Z,82.90
2018-02-20T00:10:21.488Z,82.10
2018-02-20T00:12:48.664Z,82.10
2018-02-20T00:15:15.051Z,82.10
2018-02-20T00:17:41.458Z,82.00
2018-02-20T00:20:07.958Z,82.20
2018-02-20T00:22:34.384Z,82.00
2018-02-20T00:25:00.818Z,82.00
2018-02-20T00:27:27.230Z,82.00
2018-02-20T00:29:54.400Z,82.00
2018-02-20T00:32:20.780Z,82.00
2018-02-20T00:34:47.184Z,82.10
2018-02-20T00:37:13.646Z,82.20
2018-02-20T00:39:40.096Z,82.10
2018-02-20T00:42:06.506Z,82.00
2018-02-20T00:44:32.930Z,82.00
2018-02-20T00:46:59.358Z,82.20
2018-02-20T00:49:25.796Z,82.20
2018-02-20T00:51:52.223Z,82.20
2018-02-20T00:54:18.669Z,82.20
2018-02-20T00:56:45.090Z,82.40
2018-02-20T00:59:11.504Z,82.30
2018-02-20T01:01:37.954Z,82.30
2018-02-20T01:04:04.388Z,82.30
2018-02-20T01:06:30.803Z,82.20
2018-02-20T01:08:57.232Z,82.40
2018-02-20T01:11:23.663Z,82.40
2018-02-20T01:13:50.815Z,82.50
2018-02-20T01:16:17.216Z,82.40
2018-02-20T01:18:43.649Z,82.50
2018-02-20T01:21:10.800Z,82.50
2018-02-20T01:23:37.350Z,82.50
2018-02-20T01:26:04.488Z,82.50
2018-02-20T01:28:30.919Z,82.50
2018-02-20T01:30:57.375Z,82.40
2018-02-20T01:33:24.548Z,82.50
2018-02-20T01:35:50.943Z,82.50
2018-02-20T01:38:17.387Z,82.50
2018-02-20T01:40:44.538Z,82.50
2018-02-20T01:43:11.658Z,82.50
2018-02-20T01:45:38.074Z,82.50
2018-02-20T01:48:05.246Z,82.40
2018-02-20T01:50:31.660Z,82.40
2018-02-20T01:52:58.052Z,82.50
2018-02-20T01:55:25.233Z,82.50
2018-02-20T01:57:51.662Z,82.40
2018-02-20T02:00:18.071Z,82.50
2018-02-20T02:02:44.543Z,82.50
2018-02-20T02:05:10.927Z,82.60
2018-02-20T02:07:38.088Z,82.50
2018-02-20T02:10:04.496Z,82.50
2018-02-20T02:12:31.658Z,82.70
2018-02-20T02:14:58.846Z,82.40
2018-02-20T02:17:25.256Z,82.40
2018-02-20T02:19:52.419Z,82.50
2018-02-20T02:22:18.885Z,82.40
2018-02-20T02:24:45.272Z,82.40
2018-02-20T02:27:11.695Z,82.40
2018-02-20T02:29:38.874Z,82.40
2018-02-20T02:32:05.305Z,82.40
2018-02-20T02:34:31.738Z,82.40
2018-02-20T02:36:58.179Z,82.40
2018-02-20T02:39:24.575Z,82.30
2018-02-20T02:41:51.780Z,82.40
2018-02-20T02:44:18.192Z,82.30
2018-02-20T02:46:44.575Z,82.40
2018-02-20T02:49:10.984Z,82.40
2018-02-20T02:51:37.440Z,82.40
2018-02-20T02:54:03.876Z,82.30
2018-02-20T02:56:30.301Z,83.10
2018-02-20T02:58:56.714Z,82.40
2018-02-20T03:01:23.168Z,82.40
2018-02-20T03:03:49.690Z,82.40
2018-02-20T03:06:16.121Z,82.50
2018-02-20T03:08:42.579Z,82.40
2018-02-20T03:11:08.984Z,82.30
2018-02-20T03:13:35.451Z,82.40
2018-02-20T03:16:01.870Z,82.30
2018-02-20T03:18:28.283Z,82.40
2018-02-20T03:20:54.707Z,82.30
2018-02-20T03:23:21.123Z,82.40
2018-02-20T03:25:47.554Z,83.00
2018-02-20T03:28:13.988Z,82.20
2018-02-20T03:30:40.407Z,82.20
2018-02-20T03:33:07.555Z,82.40
2018-02-20T03:35:33.986Z,82.40
2018-02-20T03:38:01.233Z,82.40
2018-02-20T03:40:28.384Z,82.40
2018-02-20T03:42:55.547Z,82.40
2018-02-20T03:45:22.018Z,82.30
2018-02-20T03:47:48.420Z,82.20
2018-02-20T03:50:14.900Z,82.40
2018-02-20T03:52:41.442Z,82.40
2018-02-20T03:55:07.844Z,82.30
2018-02-20T03:57:34.242Z,82.40
2018-02-20T04:00:01.395Z,82.40
2018-02-20T04:02:28.540Z,82.30
2018-02-20T04:04:55.721Z,82.40
2018-02-20T04:07:22.128Z,82.20
2018-02-20T04:09:49.276Z,82.40
2018-02-20T04:12:16.494Z,82.40
2018-02-20T04:14:42.899Z,82.20
2018-02-20T04:17:09.368Z,82.30
2018-02-20T04:19:35.781Z,82.30
2018-02-20T04:22:02.226Z,82.30
2018-02-20T04:24:28.650Z,82.40
2018-02-20T04:26:55.070Z,82.10
2018-02-20T04:29:21.498Z,82.20
2018-02-20T04:31:47.959Z,82.20
2018-02-20T04:34:14.373Z,82.20
2018-02-20T04:36:40.820Z,82.20
2018-02-20T04:39:07.225Z,82.10
2018-02-20T04:41:33.647Z,82.20
2018-02-20T04:44:00.066Z,82.20
2018-02-20T04:46:27.225Z,82.30
2018-02-20T04:48:53.664Z,82.20
2018-02-20T04:51:20.116Z,82.30
2018-02-20T04:53:46.584Z,82.20
2018-02-20T04:56:13.016Z,82.20
2018-02-20T04:58:39.438Z,82.20
2018-02-20T05:01:05.919Z,82.20
2018-02-20T05:03:33.138Z,82.30
2018-02-20T05:05:59.551Z,82.20
2018-02-20T05:08:25.968Z,82.20
2018-02-20T05:10:52.405Z,82.20
2018-02-20T05:13:18.861Z,82.20
2018-02-20T05:15:45.293Z,82.20
2018-02-20T05:18:11.706Z,82.20
2018-02-20T05:20:38.117Z,82.30
2018-02-20T05:23:04.572Z,82.30
2018-02-20T05:25:31.008Z,82.20
2018-02-20T05:27:57.424Z,82.30
2018-02-20T05:30:23.833Z,82.20
2018-02-20T05:32:51.001Z,82.30
2018-02-20T05:35:17.400Z,82.20
2018-02-20T05:37:43.852Z,82.10
2018-02-20T05:40:11.017Z,82.20
2018-02-20T05:42:37.496Z,82.10
2018-02-20T05:45:03.930Z,82.20
2018-02-20T05:47:30.340Z,82.20
2018-02-20T05:49:56.781Z,82.10
2018-02-20T05:52:23.184Z,82.20
2018-02-20T05:54:50.337Z,82.20
2018-02-20T05:57:16.763Z,82.10
2018-02-20T05:59:43.945Z,82.30
2018-02-20T06:02:10.401Z,82.20
2018-02-20T06:04:36.798Z,82.20
2018-02-20T06:07:03.196Z,82.20
2018-02-20T06:09:30.375Z,82.20
2018-02-20T06:11:56.798Z,82.10
2018-02-20T06:14:23.979Z,82.20
2018-02-20T06:16:50.436Z,82.20
2018-02-20T06:19:16.832Z,82.20
2018-02-20T06:21:43.218Z,82.20
2018-02-20T06:24:09.689Z,82.10
2018-02-20T06:26:36.842Z,82.00
2018-02-20T06:29:04.127Z,82.00
2018-02-20T06:31:30.619Z,82.00
2018-02-20T06:33:57.791Z,82.10
2018-02-20T06:36:24.230Z,82.10
2018-02-20T06:38:50.699Z,82.10
2018-02-20T06:41:17.134Z,82.10
2018-02-20T06:43:43.532Z,82.10
2018-02-20T06:46:10.017Z,82.10
2018-02-20T06:48:36.449Z,82.00
2018-02-20T06:51:02.886Z,82.10
2018-02-20T06:53:29.293Z,82.00
2018-02-20T06:55:55.706Z,82.10
2018-02-20T06:58:22.159Z,82.10
2018-02-20T07:00:48.589Z,82.00
2018-02-20T07:03:14.992Z,82.00
2018-02-20T07:05:42.193Z,82.00
2018-02-20T07:08:08.605Z,81.80
2018-02-20T07:10:35.026Z,82.00
2018-02-20T07:13:01.494Z,81.80
2018-02-20T07:15:27.910Z,82.00
2018-02-20T07:17:54.339Z,82.00
2018-02-20T07:20:20.798Z,82.00
2018-02-20T07:22:47.221Z,81.80
2018-02-20T07:25:13.665Z,82.00
2018-02-20T07:27:40.097Z,81.90
2018-02-20T07:30:06.510Z,81.80
2018-02-20T07:32:32.961Z,81.60
2018-02-20T07:34:59.369Z,81.80
2018-02-20T07:37:25.776Z,81.90
2018-02-20T07:39:52.949Z,81.70
2018-02-20T07:42:19.428Z,81.70
2018-02-20T07:44:45.845Z,81.70
2018-02-20T07:47:12.331Z,81.70
2018-02-20T07:49:39.511Z,81.70
2018-02-20T07:52:05.942Z,81.70
2018-02-20T07:54:32.336Z,81.70
2018-02-20T07:56:59.493Z,81.70
2018-02-20T07:59:26.635Z,82.00
2018-02-20T08:01:53.069Z,81.80
2018-02-20T08:04:19.550Z,82.70
2018-02-20T08:06:45.970Z,82.30
2018-02-20T08:09:13.158Z,82.20
2018-02-20T08:11:39.586Z,82.10
2018-02-20T08:14:06.062Z,82.10
2018-02-20T08:16:33.250Z,82.30
2018-02-20T08:18:59.702Z,82.30
2018-02-20T08:21:26.129Z,82.40
2018-02-20T08:23:52.532Z,82.40
2018-02-20T08:26:18.948Z,82.40
2018-02-20T08:28:46.252Z,82.40
2018-02-20T08:31:12.660Z,82.40
2018-02-20T08:33:39.071Z,82.40
2018-02-20T08:36:06.265Z,82.40
2018-02-20T08:38:32.718Z,82.30
2018-02-20T08:40:59.148Z,82.30
2018-02-20T08:43:26.314Z,82.20
2018-02-20T08:45:52.752Z,82.10
2018-02-20T08:48:19.362Z,82.10
2018-02-20T08:50:45.783Z,82.00
2018-02-20T08:53:12.235Z,82.10
2018-02-20T08:55:38.690Z,82.10
2018-02-20T08:58:05.092Z,82.00
2018-02-20T09:00:31.493Z,81.90
2018-02-20T09:02:58.694Z,81.80
2018-02-20T09:05:25.139Z,81.80
2018-02-20T09:07:51.535Z,81.80
2018-02-20T09:10:17.975Z,81.80
2018-02-20T09:12:44.356Z,81.70
2018-02-20T09:15:10.761Z,81.80
2018-02-20T09:17:37.202Z,81.70
2018-02-20T09:20:03.612Z,81.60
2018-02-20T09:22:30.028Z,81.70
2018-02-20T09:24:56.480Z,81.60
2018-02-20T09:27:22.901Z,81.50
2018-02-20T09:29:49.350Z,81.40
2018-02-20T09:32:15.831Z,81.30
2018-02-20T09:34:42.977Z,81.60
2018-02-20T09:37:09.382Z,81.40
2018-02-20T09:39:35.826Z,81.40
2018-02-20T09:42:02.251Z,81.60
2018-02-20T09:44:28.671Z,81.50
2018-02-20T09:46:55.090Z,81.60
2018-02-20T09:49:21.498Z,82.20
2018-02-20T09:51:48.673Z,81.40
2018-02-20T09:54:15.091Z,81.40
2018-02-20T09:56:41.511Z,81.30
2018-02-20T09:59:08.688Z,81.30
2018-02-20T10:01:35.826Z,82.00
2018-02-20T10:04:02.249Z,81.20
2018-02-20T10:06:29.442Z,81.20
2018-02-20T10:08:55.880Z,81.20
2018-02-20T10:11:22.320Z,81.10
2018-02-20T10:13:48.747Z,81.20
2018-02-20T10:16:15.154Z,81.00
2018-02-20T10:18:41.614Z,81.00
2018-02-20T10:21:08.043Z,80.90
2018-02-20T10:23:34.458Z,80.90
2018-02-20T10:26:00.865Z,81.20
2018-02-20T10:28:28.054Z,81.10
2018-02-20T10:30:54.471Z,80.90
2018-02-20T10:33:20.873Z,81.00
2018-02-20T10:35:47.300Z,80.90
2018-02-20T10:38:13.708Z,81.60
2018-02-20T10:40:40.150Z,81.20
2018-02-20T10:43:06.571Z,80.80
2018-02-20T10:45:32.988Z,80.80
2018-02-20T10:47:59.483Z,80.80
2018-02-20T10:50:26.642Z,81.70
2018-02-20T10:52:53.087Z,80.90
2018-02-20T10:55:19.521Z,80.90
2018-02-20T10:57:45.946Z,81.00
2018-02-20T11:00:12.361Z,81.00
2018-02-20T11:02:39.500Z,81.50
2018-02-20T11:05:05.954Z,81.10
2018-02-20T11:07:33.107Z,81.20
2018-02-20T11:10:00.256Z,81.10
2018-02-20T11:12:27.423Z,81.30
2018-02-20T11:14:53.817Z,81.20
2018-02-20T11:17:20.262Z,80.80
2018-02-20T11:19:47.417Z,80.60
2018-02-20T11:22:14.552Z,80.90
2018-02-20T11:24:40.995Z,80.80
2018-02-20T11:27:07.401Z,81.20
2018-02-20T11:29:33.920Z,81.00
2018-02-20T11:32:00.357Z,80.90
2018-02-20T11:34:26.753Z,80.60
2018-02-20T11:36:53.162Z,80.80
2018-02-20T11:39:19.577Z,80.90
2018-02-20T11:41:46.006Z,80.80
2018-02-20T11:44:12.397Z,81.00
2018-02-20T11:46:38.834Z,80.90
2018-02-20T11:49:05.301Z,81.00
2018-02-20T11:51:31.764Z,80.70
2018-02-20T11:53:58.216Z,81.10
2018-02-20T11:56:24.629Z,81.60
2018-02-20T11:58:51.084Z,80.70
2018-02-20T12:01:17.487Z,82.00
2018-02-20T12:03:43.911Z,81.00
2018-02-20T12:06:10.363Z,80.60
2018-02-20T12:08:36.786Z,80.90
2018-02-20T12:11:03.195Z,81.00
2018-02-20T12:13:29.670Z,81.30
2018-02-20T12:15:56.902Z,81.00
2018-02-20T12:18:23.291Z,81.00
2018-02-20T12:20:49.734Z,80.60
2018-02-20T12:23:16.153Z,80.50
2018-02-20T12:25:42.587Z,80.60
2018-02-20T12:28:09.005Z,80.60
2018-02-20T12:30:36.155Z,80.50
2018-02-20T12:33:03.345Z,80.40
2018-02-20T12:35:29.772Z,80.40
2018-02-20T12:37:56.187Z,80.50
2018-02-20T12:40:22.676Z,80.60
2018-02-20T12:42:49.167Z,80.70
2018-02-20T12:45:15.549Z,80.60
2018-02-20T12:47:42.006Z,80.40
2018-02-20T12:50:09.155Z,80.20
2018-02-20T12:52:35.583Z,80.10
2018-02-20T12:55:02.802Z,80.20
2018-02-20T12:57:29.958Z,80.40
2018-02-20T12:59:56.413Z,79.70
2018-02-20T13:02:22.822Z,80.60
2018-02-20T13:04:49.263Z,80.50
2018-02-20T13:07:15.812Z,80.40
2018-02-20T13:09:42.192Z,80.40
2018-02-20T13:12:08.615Z,80.60
2018-02-20T13:14:35.078Z,80.20
2018-02-20T13:17:01.509Z,80.30
2018-02-20T13:19:27.935Z,80.30
2018-02-20T13:21:54.464Z,80.30
2018-02-20T13:24:20.925Z,80.50
2018-02-20T13:26:47.342Z,80.30
2018-02-20T13:29:13.761Z,80.40
2018-02-20T13:31:40.234Z,80.40
2018-02-20T13:34:06.677Z,80.00
2018-02-20T13:36:33.096Z,80.00
2018-02-20T13:38:59.569Z,80.10
2018-02-20T13:41:26.073Z,80.00
2018-02-20T13:43:52.627Z,79.80
2018-02-20T13:46:19.790Z,79.80
2018-02-20T13:48:47.012Z,80.30
2018-02-20T13:51:13.457Z,80.30
2018-02-20T13:53:39.869Z,80.00
2018-02-20T13:56:06.330Z,80.20
2018-02-20T13:58:32.723Z,80.50
2018-02-20T14:00:59.164Z,80.20
2018-02-20T14:03:25.670Z,80.00
2018-02-20T14:05:52.170Z,80.40
2018-02-20T14:08:19.470Z,81.10
2018-02-20T14:10:45.928Z,80.70
2018-02-20T14:13:12.327Z,80.40
2018-02-20T14:15:38.770Z,80.70
2018-02-20T14:18:05.222Z,80.80
2018-02-20T14:20:31.635Z,80.30
2018-02-20T14:22:58.050Z,80.20
2018-02-20T14:25:24.484Z,79.90
2018-02-20T14:27:50.956Z,79.80
2018-02-20T14:30:17.502Z,80.00
2018-02-20T14:32:43.984Z,80.10
2018-02-20T14:35:11.240Z,80.10
2018-02-20T14:37:37.661Z,80.10
2018-02-20T14:40:04.855Z,80.50
2018-02-20T14:42:31.361Z,80.40
2018-02-20T14:44:57.771Z,80.10
2018-02-20T14:47:24.187Z,79.90
2018-02-20T14:49:50.603Z,80.10
2018-02-20T14:52:17.113Z,80.10
2018-02-20T14:54:43.525Z,80.10
2018-02-20T14:57:10.683Z,80.20
2018-02-20T14:59:37.101Z,80.20
2018-02-20T15:02:04.284Z,80.30
2018-02-20T15:04:30.737Z,80.30
2018-02-20T15:06:57.196Z,80.30
2018-02-20T15:09:23.625Z,80.50
2018-02-20T15:11:50.052Z,80.70
2018-02-20T15:14:16.494Z,80.50
2018-02-20T15:16:42.943Z,80.40
2018-02-20T15:19:09.363Z,80.40
2018-02-20T15:21:35.787Z,80.70
2018-02-20T15:24:02.253Z,80.40
2018-02-20T15:26:29.436Z,80.40
2018-02-20T15:28:55.871Z,80.40
2018-02-20T15:31:22.340Z,80.20
2018-02-20T15:33:48.757Z,80.40
2018-02-20T15:36:15.914Z,81.40
2018-02-20T15:38:42.382Z,80.60
2018-02-20T15:41:08.816Z,80.60
2018-02-20T15:43:35.264Z,80.60
2018-02-20T15:46:02.515Z,80.80
2018-02-20T15:48:29.677Z,80.90
2018-02-20T15:50:56.910Z,81.30
2018-02-20T15:53:24.068Z,81.30
2018-02-20T15:55:51.291Z,81.10
2018-02-20T15:58:17.964Z,81.10
2018-02-20T16:00:44.358Z,81.60
2018-02-20T16:03:10.775Z,81.60
2018-02-20T16:05:37.215Z,81.90
2018-02-20T16:08:03.648Z,82.70
2018-02-20T16:10:30.802Z,82.40
2018-02-20T16:12:57.276Z,82.30
2018-02-20T16:15:24.467Z,82.20
2018-02-20T16:17:50.873Z,82.30
2018-02-20T16:20:18.058Z,82.50
2018-02-20T16:22:44.485Z,82.50
2018-02-20T16:25:10.968Z,82.60
2018-02-20T16:27:37.383Z,82.70
2018-02-20T16:30:03.812Z,82.70
2018-02-20T16:32:30.240Z,82.40
2018-02-20T16:34:57.567Z,82.60
2018-02-20T16:37:23.990Z,82.60
2018-02-20T16:39:50.440Z,82.50
2018-02-20T16:42:16.893Z,82.50
2018-02-20T16:44:43.320Z,82.40
2018-02-20T16:47:09.759Z,82.50
2018-02-20T16:49:36.185Z,82.50
2018-02-20T16:52:02.677Z,82.60
2018-02-20T16:54:29.891Z,82.00
2018-02-20T16:56:56.345Z,81.90
2018-02-20T16:59:22.752Z,82.20
2018-02-20T17:01:49.155Z,82.20
2018-02-20T17:04:15.840Z,81.80
2018-02-20T17:06:42.352Z,82.00
2018-02-20T17:09:08.808Z,82.20
2018-02-20T17:11:35.256Z,82.20
2018-02-20T17:14:01.681Z,82.40
2018-02-20T17:16:28.139Z,82.50
2018-02-20T17:18:55.288Z,82.20
2018-02-20T17:21:22.451Z,82.60
2018-02-20T17:23:49.616Z,82.30
2018-02-20T17:26:16.112Z,82.30
2018-02-20T17:28:42.575Z,82.10
2018-02-20T17:31:09.007Z,82.30
2018-02-20T17:33:36.187Z,81.50
2018-02-20T17:36:02.628Z,81.50
2018-02-20T17:38:29.012Z,81.80
2018-02-20T17:40:56.266Z,82.70
2018-02-20T17:43:23.420Z,81.70
2018-02-20T17:45:50.585Z,82.00
2018-02-20T17:48:17.012Z,82.00
2018-02-20T17:50:43.459Z,82.10
2018-02-20T17:53:09.975Z,82.00
2018-02-20T17:55:37.338Z,81.70
2018-02-20T17:58:03.756Z,81.70
2018-02-20T18:00:30.943Z,81.60
2018-02-20T18:02:57.566Z,81.60
2018-02-20T18:05:24.019Z,81.50
2018-02-20T18:07:50.448Z,82.10
2018-02-20T18:10:16.875Z,81.30
2018-02-20T18:12:43.335Z,81.90
2018-02-20T18:15:09.737Z,81.00
2018-02-20T18:17:36.185Z,80.90
2018-02-20T18:20:02.583Z,80.80
2018-02-20T18:22:29.734Z,80.70
2018-02-20T18:24:56.995Z,81.10
2018-02-20T18:27:24.170Z,81.00
2018-02-20T18:29:50.714Z,80.90
2018-02-20T18:32:17.174Z,81.10
2018-02-20T18:34:43.647Z,81.20
2018-02-20T18:37:10.877Z,81.30
2018-02-20T18:39:37.294Z,81.30
2018-02-20T18:42:03.720Z,81.20
2018-02-20T18:44:30.144Z,81.20
2018-02-20T18:46:56.556Z,81.40
2018-02-20T18:49:22.998Z,81.20
2018-02-20T18:51:49.399Z,81.30
2018-02-20T18:54:16.637Z,81.40
2018-02-20T18:56:43.840Z,81.30
2018-02-20T18:59:10.235Z,81.20
2018-02-20T19:01:37.431Z,81.20
2018-02-20T19:04:03.847Z,81.20
2018-02-20T19:06:30.298Z,80.80
2018-02-20T19:08:56.746Z,80.90
2018-02-20T19:11:23.144Z,81.10
2018-02-20T19:13:50.705Z,80.90
2018-02-20T19:16:17.194Z,81.00
2018-02-20T19:18:43.582Z,81.10
2018-02-20T19:21:10.022Z,81.00
2018-02-20T19:23:36.417Z,81.10
2018-02-20T19:26:03.592Z,81.10
2018-02-20T19:28:30.748Z,81.10
2018-02-20T19:30:57.205Z,81.10
2018-02-20T19:33:23.611Z,81.10
2018-02-20T19:35:50.054Z,81.20
2018-02-20T19:38:17.223Z,81.20
2018-02-20T19:40:43.634Z,81.20
2018-02-20T19:43:10.040Z,81.20
2018-02-20T19:45:37.236Z,81.10
2018-02-20T19:48:03.698Z,81.70
2018-02-20T19:50:30.125Z,81.40
2018-02-20T19:52:56.529Z,81.40
2018-02-20T19:55:22.990Z,81.40
2018-02-20T19:57:49.419Z,81.40
2018-02-20T20:00:15.818Z,81.40
2018-02-20T20:02:42.972Z,81.30
2018-02-20T20:05:09.413Z,81.30
2018-02-20T20:07:36.069Z,81.30
2018-02-20T20:10:02.677Z,81.30
2018-02-20T20:12:29.109Z,81.30
2018-02-20T20:14:55.762Z,81.30
2018-02-20T20:17:22.183Z,81.30
2018-02-20T20:19:48.911Z,81.20
2018-02-20T20:22:15.380Z,81.40
2018-02-20T20:24:41.802Z,81.40
2018-02-20T20:27:08.664Z,81.50
2018-02-20T20:29:35.351Z,81.60
2018-02-20T20:32:01.803Z,82.30
2018-02-20T20:34:28.557Z,81.60
2018-02-20T20:36:55.006Z,81.60
2018-02-20T20:39:21.523Z,81.60
2018-02-20T20:41:47.982Z,81.50
2018-02-20T20:44:14.428Z,81.60
2018-02-20T20:46:41.157Z,81.60
2018-02-20T20:49:07.585Z,81.70
2018-02-20T20:51:34.017Z,81.70
2018-02-20T20:54:00.612Z,81.60
2018-02-20T20:56:28.044Z,81.60
2018-02-20T20:58:54.501Z,81.60
2018-02-20T21:01:21.750Z,81.70
2018-02-20T21:03:48.918Z,81.60
2018-02-20T21:06:16.149Z,81.60
2018-02-20T21:08:42.569Z,81.60
2018-02-20T21:11:09.525Z,81.70
2018-02-20T21:13:35.972Z,81.60
2018-02-20T21:16:02.751Z,81.70
2018-02-20T21:18:29.456Z,81.60
2018-02-20T21:20:56.489Z,81.60
2018-02-20T21:23:22.915Z,81.70
2018-02-20T21:25:49.352Z,81.70
2018-02-20T21:28:15.789Z,81.70
2018-02-20T21:30:42.266Z,81.70
2018-02-20T21:33:08.678Z,81.70
2018-02-20T21:35:36.192Z,81.80
2018-02-20T21:38:02.626Z,81.70
2018-02-20T21:40:29.648Z,81.80
2018-02-20T21:42:56.096Z,81.90
2018-02-20T21:45:22.496Z,81.90
2018-02-20T21:47:48.917Z,81.90
2018-02-20T21:50:16.061Z,81.90
2018-02-20T21:52:43.266Z,82.50
2018-02-20T21:55:09.870Z,81.90
2018-02-20T21:57:36.307Z,81.90
2018-02-20T22:00:03.868Z,81.90
2018-02-20T22:02:30.493Z,81.90
2018-02-20T22:04:57.674Z,82.00
2018-02-20T22:07:24.215Z,81.90
2018-02-20T22:09:52.022Z,81.80
2018-02-20T22:12:18.471Z,81.80
2018-02-20T22:14:45.671Z,81.90
2018-02-20T22:17:12.285Z,81.80
2018-02-20T22:19:38.938Z,81.90
2018-02-20T22:22:05.362Z,82.00
2018-02-20T22:24:32.280Z,81.90
2018-02-20T22:26:58.831Z,82.00
2018-02-20T22:29:25.521Z,82.00
2018-02-20T22:31:51.959Z,81.80
2018-02-20T22:34:18.847Z,81.80
2018-02-20T22:36:45.628Z,81.80
2018-02-20T22:39:12.707Z,81.80
2018-02-20T22:41:39.103Z,81.80
2018-02-20T22:44:06.193Z,81.70
2018-02-20T22:46:32.698Z,81.70
2018-02-20T22:48:59.121Z,81.70
2018-02-20T22:51:25.677Z,81.80
2018-02-20T22:53:52.096Z,82.00
2018-02-20T22:56:21.188Z,82.00
2018-02-20T22:58:47.615Z,81.80
2018-02-20T23:01:14.490Z,82.00
2018-02-20T23:03:40.940Z,81.90
2018-02-20T23:06:07.364Z,82.10
2018-02-20T23:08:33.837Z,82.00
2018-02-20T23:11:01.018Z,82.20
2018-02-20T23:13:27.563Z,82.00
2018-02-20T23:15:54.030Z,82.00
2018-02-20T23:18:21.082Z,82.00
2018-02-20T23:20:47.517Z,82.00
2018-02-20T23:23:14.215Z,82.10
2018-02-20T23:25:41.010Z,82.20
2018-02-20T23:28:08.019Z,82.00
2018-02-20T23:30:35.366Z,81.90
2018-02-20T23:33:02.144Z,82.00
2018-02-20T23:35:29.012Z,82.10
2018-02-20T23:37:55.475Z,82.10
2018-02-20T23:40:21.889Z,82.10
2018-02-20T23:42:48.313Z,82.10
2018-02-20T23:45:15.495Z,82.30
2018-02-20T23:47:41.920Z,82.20
2018-02-20T23:50:08.321Z,82.10
2018-02-20T23:52:35.564Z,82.20
2018-02-20T23:55:01.985Z,82.10
2018-02-20T23:57:28.677Z,82.20
2018-02-20T23:59:55.114Z,82.10
